Time;durP1;ratioP1;P1;durP2;ratioP2;P2;SDS_P1;SDS_P2;PMS_P1;PMS_P2;Temp;Humidity;BMP_temperature;BMP_pressure;BME280_temperature;BME280_humidity;BME280_pressure;Samples;Min_cycle;Max_cycle;Signal;HPM_P1;HPM_P2
2023/04/04 00:01:15;;;;;;;0.10;0.10;;;;;;;2.35;68.63;101554.69;6212506;23;20065;-75
2023/04/04 00:03:41;;;;;;;0.00;0.00;;;;;;;2.36;69.22;101561.75;6158769;23;20004;-75
2023/04/04 00:06:06;;;;;;;0.00;0.00;;;;;;;2.34;69.07;101559.25;6190384;23;20339;-74
2023/04/04 00:08:32;;;;;;;0.00;0.00;;;;;;;2.35;69.19;101560.06;6207964;23;20043;-75
2023/04/04 00:10:59;;;;;;;0.08;0.08;;;;;;;2.33;69.33;101562.13;6239295;23;20012;-75
2023/04/04 00:13:25;;;;;;;0.00;0.00;;;;;;;2.29;69.04;101555.41;6233907;23;20000;-74
2023/04/04 00:15:51;;;;;;;0.00;0.00;;;;;;;2.26;69.18;101552.06;6213803;23;20355;-74
2023/04/04 00:18:16;;;;;;;0.00;0.00;;;;;;;2.23;69.93;101552.44;6236811;23;20008;-75
2023/04/04 00:20:42;;;;;;;0.10;0.10;;;;;;;2.22;69.80;101556.16;6183006;23;20008;-74
2023/04/04 00:23:09;;;;;;;0.10;0.10;;;;;;;2.19;70.26;101545.72;6209837;23;20011;-75
2023/04/04 00:25:38;;;;;;;0.10;0.10;;;;;;;2.18;70.18;101552.13;6215285;23;20418;-74
2023/04/04 00:28:03;;;;;;;0.05;0.05;;;;;;;2.16;70.34;101546.09;6206520;23;20077;-74
2023/04/04 00:30:30;;;;;;;0.00;0.00;;;;;;;2.12;70.45;101552.88;6238897;23;20007;-73
2023/04/04 02:30:37;;;;;;;0.10;0.10;;;;;;;1.01;73.20;101504.59;6239505;23;20022;-73
2023/04/04 02:39:50;;;;;;;0.00;0.00;;;;;;;0.96;73.49;101506.97;6236216;23;20092;-74
2023/04/04 02:42:25;;;;;;;0.00;0.00;;;;;;;0.97;73.83;101503.28;6214144;23;20008;-74
2023/04/04 02:44:50;;;;;;;0.00;0.00;;;;;;;0.97;74.02;101507.84;6188343;23;20008;-75
2023/04/04 02:47:16;;;;;;;0.00;0.00;;;;;;;0.98;74.16;101498.72;6187981;23;20062;-74
2023/04/04 02:49:42;;;;;;;0.00;0.00;;;;;;;0.95;74.13;101497.25;6209237;23;20008;-74
2023/04/04 02:52:07;;;;;;;0.10;0.10;;;;;;;0.95;73.99;101494.53;6188302;23;20081;-75
2023/04/04 02:54:33;;;;;;;0.10;0.10;;;;;;;0.93;75.00;101495.72;6212675;23;20007;-74
2023/04/04 02:56:58;;;;;;;0.03;0.03;;;;;;;0.92;75.08;101494.03;6208962;23;20035;-74
2023/04/04 02:59:24;;;;;;;0.00;0.00;;;;;;;0.93;74.64;101491.16;6188469;23;20012;-74
2023/04/04 03:01:50;;;;;;;0.00;0.00;;;;;;;0.93;74.84;101495.72;6210214;23;20087;-74
2023/04/04 03:04:17;;;;;;;0.00;0.00;;;;;;;0.90;75.57;101490.69;6213431;23;20012;-75
2023/04/04 03:06:42;;;;;;;0.00;0.00;;;;;;;0.91;75.31;101495.06;6208707;23;20039;-74
2023/04/04 03:09:08;;;;;;;0.08;0.08;;;;;;;0.89;74.88;101494.41;6213726;23;20035;-75
2023/04/04 03:11:33;;;;;;;0.00;0.00;;;;;;;0.80;74.98;101480.13;6212592;23;20421;-74
2023/04/04 03:13:59;;;;;;;0.00;0.00;;;;;;;0.76;75.48;101490.44;6160988;23;20015;-76
2023/04/04 03:16:24;;;;;;;0.10;0.10;;;;;;;0.76;75.38;101485.03;6189977;23;20008;-75
2023/04/04 03:18:50;;;;;;;0.00;0.00;;;;;;;0.75;76.31;101486.06;6187977;23;20008;-74
2023/04/04 03:21:16;;;;;;;0.03;0.03;;;;;;;0.68;75.53;101477.00;6213030;23;20012;-75
2023/04/04 03:23:41;;;;;;;0.00;0.00;;;;;;;0.69;75.76;101484.06;6209691;23;20062;-74
2023/04/04 03:26:07;;;;;;;0.00;0.00;;;;;;;0.69;75.70;101486.75;6209163;22;20023;-73
2023/04/04 03:28:33;;;;;;;0.00;0.00;;;;;;;0.67;76.48;101480.69;6214561;23;20118;-74
2023/04/04 03:31:05;;;;;;;0.10;0.10;;;;;;;0.63;76.56;101474.00;6208815;23;20004;-73
2023/04/04 03:33:32;;;;;;;0.00;0.00;;;;;;;0.62;76.87;101472.31;6188800;23;20039;-73
2023/04/04 03:35:58;;;;;;;0.10;0.10;;;;;;;0.60;76.63;101485.09;6240185;23;20012;-72
2023/04/04 03:38:24;;;;;;;0.00;0.00;;;;;;;0.61;76.94;101482.22;6236366;23;20078;-73
2023/04/04 03:40:50;;;;;;;0.00;0.00;;;;;;;0.57;77.40;101474.66;6214057;23;20039;-74
2023/04/04 03:43:16;;;;;;;0.10;0.10;;;;;;;0.55;76.78;101469.47;6182319;23;20016;-74
2023/04/04 03:45:41;;;;;;;0.00;0.00;;;;;;;0.49;76.85;101462.91;6214157;23;20008;-73
2023/04/04 03:48:09;;;;;;;0.00;0.00;;;;;;;0.55;76.59;101482.94;6158664;23;20042;-74
2023/04/04 03:50:35;;;;;;;0.00;0.00;;;;;;;0.49;77.53;101473.69;6238975;23;20012;-73
2023/04/04 03:53:01;;;;;;;0.00;0.00;;;;;;;0.52;76.69;101483.28;6164516;23;20004;-73
2023/04/04 03:55:27;;;;;;;0.10;0.10;;;;;;;0.50;78.10;101480.75;6184593;23;20066;-73
2023/04/04 03:57:52;;;;;;;0.10;0.10;;;;;;;0.47;77.86;101475.72;6240441;23;20004;-73
2023/04/04 04:00:17;;;;;;;0.10;0.10;;;;;;;0.51;77.58;101484.28;6207374;23;20007;-74
2023/04/04 04:02:44;;;;;;;0.00;0.00;;;;;;;0.44;77.64;101476.06;6163707;23;20008;-73
2023/04/04 04:05:11;;;;;;;0.00;0.00;;;;;;;0.51;78.07;101492.34;6206539;23;20438;-75
2023/04/04 04:07:36;;;;;;;0.00;0.00;;;;;;;0.48;78.26;101493.56;6187564;23;20008;-73
2023/04/04 04:10:02;;;;;;;0.10;0.10;;;;;;;0.45;78.27;101487.66;6212854;23;20351;-73
2023/04/04 04:19:11;;;;;;;0.10;0.10;;;;;;;0.47;77.54;101486.50;6234426;23;20018;-73
2023/04/04 04:21:37;;;;;;;0.00;0.00;;;;;;;0.40;77.67;101473.91;6211931;23;20020;-73
2023/04/04 04:24:02;;;;;;;0.10;0.10;;;;;;;0.37;78.04;101475.09;6206902;23;20015;-73
2023/04/04 04:26:28;;;;;;;0.00;0.00;;;;;;;0.31;78.08;101487.38;6186427;23;20028;-73
2023/04/04 04:28:53;;;;;;;0.00;0.00;;;;;;;0.25;78.37;101481.84;6184764;23;20085;-73
2023/04/04 04:31:19;;;;;;;0.10;0.10;;;;;;;0.23;78.40;101486.56;6158507;23;20054;-73
2023/04/04 04:33:44;;;;;;;0.00;0.00;;;;;;;0.18;78.08;101481.69;6213075;23;20095;-73
2023/04/04 04:36:10;;;;;;;0.00;0.00;;;;;;;0.15;78.02;101476.66;6208098;23;20004;-74
2023/04/04 04:38:35;;;;;;;0.00;0.00;;;;;;;0.11;78.54;101473.47;6186848;23;20014;-74
2023/04/04 04:41:01;;;;;;;0.00;0.00;;;;;;;0.10;78.45;101479.88;6208935;23;20016;-74
2023/04/04 04:43:26;;;;;;;0.10;0.10;;;;;;;0.07;77.87;101469.44;6212954;23;20008;-75
2023/04/04 04:45:52;;;;;;;0.05;0.05;;;;;;;0.04;78.13;101474.31;6208637;23;20499;-74
2023/04/04 04:48:17;;;;;;;0.10;0.10;;;;;;;-0.01;78.10;101472.97;6181158;23;20008;-74
2023/04/04 04:50:47;;;;;;;0.10;0.10;;;;;;;-0.03;78.15;101468.78;6187426;23;20019;-74
2023/04/04 04:53:15;;;;;;;0.00;0.00;;;;;;;-0.07;78.61;101464.78;6180591;23;20011;-73
2023/04/04 04:55:45;;;;;;;0.00;0.00;;;;;;;-0.08;78.56;101460.41;6211581;23;20004;-74
2023/04/04 04:58:11;;;;;;;0.00;0.00;;;;;;;-0.14;78.65;101461.09;6231819;23;20058;-74
2023/04/04 05:00:37;;;;;;;0.00;0.00;;;;;;;-0.16;79.42;101465.78;6186571;23;20004;-74
2023/04/04 05:03:06;;;;;;;0.10;0.10;;;;;;;-0.24;78.54;101462.06;6234159;23;20095;-75
2023/04/04 05:05:35;;;;;;;0.00;0.00;;;;;;;-0.25;78.66;101471.19;6238962;23;20308;-74
2023/04/04 05:08:02;;;;;;;0.10;0.10;;;;;;;-0.29;78.66;101460.91;6234599;23;20008;-74
2023/04/04 05:10:28;;;;;;;0.00;0.00;;;;;;;-0.28;79.49;101470.66;6184780;23;20008;-74
2023/04/04 05:12:54;;;;;;;0.10;0.10;;;;;;;-0.33;79.23;101463.09;6212131;23;20024;-74
2023/04/04 05:15:20;;;;;;;0.10;0.10;;;;;;;-0.33;79.64;101462.28;6208115;23;20000;-75
2023/04/04 05:17:46;;;;;;;0.00;0.00;;;;;;;-0.32;78.88;101456.72;6188827;23;20091;-74
2023/04/04 05:20:12;;;;;;;0.00;0.00;;;;;;;-0.33;79.31;101468.47;6206915;23;20089;-75
2023/04/04 05:22:42;;;;;;;0.10;0.10;;;;;;;-0.34;79.52;101471.34;6186350;23;20131;-74
2023/04/04 05:25:09;;;;;;;0.00;0.00;;;;;;;-0.38;79.55;101474.38;6236978;23;20004;-75
2023/04/04 05:27:34;;;;;;;0.00;0.00;;;;;;;-0.43;79.41;101467.81;6182690;23;20024;-73
2023/04/04 05:30:00;;;;;;;0.10;0.10;;;;;;;-0.44;79.59;101472.34;6186851;23;20311;-74
2023/04/04 05:32:25;;;;;;;0.10;0.10;;;;;;;-0.51;80.57;101465.09;6206888;23;20008;-75
2023/04/04 05:34:51;;;;;;;0.00;0.00;;;;;;;-0.54;79.75;101461.75;6212895;23;20335;-75
2023/04/04 05:37:16;;;;;;;0.05;0.05;;;;;;;-0.58;80.50;101463.09;6186420;23;20027;-76
2023/04/04 05:39:42;;;;;;;0.03;0.03;;;;;;;-0.54;80.16;101467.13;6207915;23;20000;-75
2023/04/04 05:42:07;;;;;;;0.05;0.05;;;;;;;-0.51;80.29;101471.34;6161201;23;20087;-74
2023/04/04 07:05:26;;;;;;;0.00;0.00;;;;;;;2.04;78.39;101529.47;6206536;23;20020;-76
2023/04/04 07:07:55;;;;;;;0.00;0.00;;;;;;;2.15;78.06;101524.69;6210159;23;20062;-74
2023/04/04 07:10:23;;;;;;;0.00;0.00;;;;;;;2.27;77.75;101517.81;6204198;23;20058;-75
2023/04/04 07:13:14;;;;;;;0.00;0.00;;;;;;;2.46;77.77;101523.72;6184465;23;20402;-78
2023/04/04 07:15:51;;;;;;;0.00;0.00;;;;;;;2.56;77.24;101530.50;6237299;23;20047;-81
2023/04/04 07:18:16;;;;;;;0.10;0.10;;;;;;;2.55;77.19;101517.19;6216095;23;19997;-82
2023/04/04 07:20:45;;;;;;;0.00;0.00;;;;;;;2.73;77.04;101524.91;6162698;23;20023;-82
2023/04/04 07:23:10;;;;;;;0.00;0.00;;;;;;;2.71;77.50;101505.34;6213619;23;20020;-81
2023/04/04 07:25:37;;;;;;;0.00;0.00;;;;;;;2.77;76.65;101496.50;6210593;23;20008;-82
2023/04/04 07:28:10;;;;;;;0.00;0.00;;;;;;;2.97;77.02;101519.19;6213260;23;20008;-81
2023/04/04 07:30:35;;;;;;;0.00;0.00;;;;;;;2.96;77.14;101497.75;6214168;23;20092;-80
2023/04/04 07:33:01;;;;;;;0.00;0.00;;;;;;;3.04;76.82;101488.69;6178206;23;20522;-82
2023/04/04 07:35:27;;;;;;;0.00;0.00;;;;;;;3.25;76.69;101510.38;6188086;23;20452;-81
2023/04/04 07:37:53;;;;;;;0.00;0.00;;;;;;;3.34;76.64;101505.69;6195010;23;20007;-81
2023/04/04 07:40:19;;;;;;;0.00;0.00;;;;;;;3.33;76.36;101485.09;6196462;23;20075;-80
2023/04/04 07:42:50;;;;;;;0.00;0.00;;;;;;;3.47;75.99;101483.34;6191474;23;20004;-79
2023/04/04 07:45:16;;;;;;;0.10;0.10;;;;;;;3.50;76.40;101480.25;6222109;23;20005;-78
2023/04/04 08:07:23;;;;;;;0.00;0.00;;;;;;;6.16;70.25;101475.38;6156937;23;20460;-81
2023/04/04 08:10:20;;;;;;;0.10;0.10;;;;;;;6.04;70.01;101478.72;6131271;23;20036;-82
2023/04/04 08:15:53;;;;;;;;;;;;;;;;;;;;;
2023/04/04 08:28:57;;;;;;;0.00;0.00;;;;;;;19.19;38.37;101474.97;5955988;24;20019;-82
2023/04/04 08:38:58;;;;;;;0.00;0.00;;;;;;;23.93;28.92;101477.75;5981377;23;20388;-81
2023/04/04 08:46:00;;;;;;;0.00;0.00;;;;;;;25.24;25.03;101469.56;5980833;23;20074;-80
2023/04/04 08:49:19;;;;;;;;;;;;;;;;;;;;;
2023/04/04 08:52:19;;;;;;;;;;;;;;;;;;;;;
2023/04/04 08:55:23;;;;;;;0.00;0.00;;;;;;;28.11;21.23;101450.41;5951178;24;20186;-82
2023/04/04 08:58:40;;;;;;;;;;;;;;;;;;;;;
2023/04/04 09:01:09;;;;;;;0.00;0.00;;;;;;;30.93;17.37;101469.91;5976461;24;20095;-79
2023/04/04 09:03:38;;;;;;;0.00;0.00;;;;;;;31.50;17.95;101463.41;5948955;23;20016;-80
2023/04/04 09:09:23;;;;;;;0.00;0.00;;;;;;;33.36;16.27;101456.91;6042888;23;20522;-82
2023/04/04 09:12:08;;;;;;;0.00;0.00;;;;;;;34.65;14.99;101475.34;6035969;23;20015;-81
2023/04/04 09:14:40;;;;;;;;;;;;;;;35.30;15.07;101502.44;6038762;23;20097;-79
2023/04/04 09:17:07;;;;;;;0.00;0.00;;;;;;;36.36;13.73;101497.78;6055329;23;20072;-79
2023/04/04 09:20:02;;;;;;;0.00;0.00;;;;;;;35.14;13.66;101480.13;6062418;23;20015;-79
2023/04/04 09:22:28;;;;;;;0.00;0.00;;;;;;;36.25;13.53;101491.38;6090673;23;20009;-81
2023/04/04 09:25:14;;;;;;;0.00;0.00;;;;;;;36.85;13.11;101500.63;6155971;23;20005;-80
2023/04/04 09:27:39;;;;;;;0.00;0.00;;;;;;;37.37;13.10;101476.88;6185439;23;20005;-80
2023/04/04 09:30:05;;;;;;;0.00;0.00;;;;;;;37.77;13.74;101493.47;6158437;23;20459;-78
2023/04/04 09:32:31;;;;;;;0.00;0.00;;;;;;;38.56;12.09;101489.34;6179447;23;20008;-81
2023/04/04 09:35:12;;;;;;;0.00;0.00;;;;;;;38.15;11.70;101487.56;6187531;23;20327;-80
2023/04/04 09:37:53;;;;;;;;;;;;;;;;;;;;;
2023/04/04 09:40:35;;;;;;;;;;;;;;;;;;;;;
2023/04/04 09:43:14;;;;;;;0.00;0.00;;;;;;;38.30;12.46;101482.47;6204925;23;20487;-78
2023/04/04 09:45:43;;;;;;;0.00;0.00;;;;;;;39.44;11.51;101462.31;6185165;23;20082;-77
2023/04/04 09:48:09;;;;;;;0.00;0.00;;;;;;;40.07;10.81;101474.81;6178832;23;20015;-77
2023/04/04 09:51:37;;;;;;;;;;;;;;;;;;;;;
2023/04/04 09:54:57;;;;;;;;;;;;;;;;;;;;;
2023/04/04 09:57:51;;;;;;;0.00;0.00;;;;;;;40.55;10.52;101462.97;6200671;23;20391;-80
2023/04/04 10:00:38;;;;;;;;;;;;;;;;;;;;;
2023/04/04 10:03:07;;;;;;;0.00;0.00;;;;;;;41.89;10.19;101465.63;6211190;23;20091;-80
2023/04/04 10:06:09;;;;;;;0.00;0.00;;;;;;;42.94;10.18;101492.41;6188222;23;20084;-78
2023/04/04 10:09:23;;;;;;;0.00;0.00;;;;;;;43.21;8.70;101460.19;6180700;23;20016;-80
2023/04/04 10:12:24;;;;;;;0.00;0.00;;;;;;;41.78;9.37;101483.19;6181117;23;20019;-80
2023/04/04 10:15:02;;;;;;;0.00;0.00;;;;;;;40.18;10.12;101456.56;6184666;23;20448;-81
2023/04/04 10:18:03;;;;;;;0.00;0.00;;;;;;;40.21;9.63;101484.28;6183876;23;20018;-80
2023/04/04 10:20:32;;;;;;;0.00;0.00;;;;;;;41.19;9.56;101466.09;6181147;23;20004;-80
2023/04/04 10:26:31;;;;;;;;;;;;;;;;;;;;;
2023/04/04 10:28:49;;;;;;;0.00;0.00;;;;;;;45.03;8.33;101491.75;6199498;23;20044;-80
2023/04/04 10:31:23;;;;;;;0.00;0.00;;;;;;;45.26;7.58;101502.63;6156528;23;20036;-79
2023/04/04 10:34:21;;;;;;;0.00;0.00;;;;;;;46.11;8.18;101483.69;6185773;23;20099;-80
2023/04/04 10:37:15;;;;;;;0.00;0.00;;;;;;;47.62;8.03;101475.56;6185730;23;20001;-81
2023/04/04 10:39:54;;;;;;;0.00;0.00;;;;;;;48.15;7.55;101470.06;6182850;23;20004;-80
2023/04/04 10:42:32;;;;;;;;;;;;;;;;;;;;;
2023/04/04 10:45:06;;;;;;;0.00;0.00;;;;;;;46.17;7.03;101475.94;6211515;23;20060;-80
2023/04/04 10:47:32;;;;;;;0.00;0.00;;;;;;;45.60;6.43;101465.16;6186810;23;20031;-78
2023/04/04 10:50:12;;;;;;;;;;;;;;;;;;;;;
2023/04/04 10:53:00;;;;;;;0.00;0.00;;;;;;;45.54;6.85;101453.47;6208028;23;20079;-79
2023/04/04 10:55:48;;;;;;;;;;;;;;;;;;;;;
2023/04/04 10:58:21;;;;;;;0.00;0.00;;;;;;;47.01;6.00;101453.78;6185064;23;20081;-82
2023/04/04 11:01:31;;;;;;;;;;;;;;;;;;;;;
2023/04/04 11:04:49;;;;;;;0.00;0.00;;;;;;;46.97;6.20;101455.28;6211529;23;20095;-79
2023/04/04 11:07:45;;;;;;;;;;;;;;;;;;;;;
2023/04/04 11:10:32;;;;;;;;;;;;;;;;;;;;;
2023/04/04 11:13:21;;;;;;;;;;;;;;;;;;;;;
2023/04/04 11:16:06;;;;;;;0.00;0.00;;;;;;;43.99;6.72;101445.19;6216709;23;20079;-83
2023/04/04 11:21:46;;;;;;;0.00;0.00;;;;;;;46.38;6.14;101453.00;6198423;23;20004;-80
2023/04/04 11:24:44;;;;;;;0.00;0.00;;;;;;;45.57;6.28;101466.13;6214167;23;20000;-81
2023/04/04 11:30:24;;;;;;;0.00;0.00;;;;;;;44.74;6.05;101470.75;6202452;23;20009;-86
2023/04/04 11:33:41;;;;;;;;;;;;;;;;;;;;;
2023/04/04 11:51:11;;;;;;;;;;;;;;;;;;;;;
2023/04/04 11:54:14;;;;;;;;;;;;;;;;;;;;;
2023/04/04 12:01:25;;;;;;;;;;;;;;;;;;;;;
2023/04/04 12:08:03;;;;;;;0.00;0.00;;;;;;;46.11;5.46;101437.47;5787408;24;20038;-82
2023/04/04 12:13:56;;;;;;;0.00;0.00;;;;;;;45.89;5.75;101415.44;5811371;24;19916;-82
2023/04/04 12:17:14;;;;;;;;;;;;;;;;;;;;;
2023/04/04 12:19:42;;;;;;;0.00;0.00;;;;;;;49.24;5.48;101441.75;6103890;23;20089;-79
2023/04/04 12:22:36;;;;;;;0.00;0.00;;;;;;;48.29;4.15;101417.00;6122664;23;20020;-77
2023/04/04 12:25:38;;;;;;;0.00;0.00;;;;;;;46.47;4.51;101410.38;6124025;23;20008;-80
2023/04/04 12:28:15;;;;;;;;;;;;;;;;;;;;;
2023/04/04 12:30:45;;;;;;;0.00;0.00;;;;;;;47.07;5.44;101395.19;6143763;23;20092;-73
2023/04/04 12:36:37;;;;;;;0.00;0.00;;;;;;;45.21;5.51;101408.00;6133821;23;20084;-80
2023/04/04 12:39:10;;;;;;;0.00;0.00;;;;;;;44.72;5.67;101395.47;6125056;23;20441;-81
2023/04/04 12:41:50;;;;;;;0.00;0.00;;;;;;;42.89;5.91;101387.41;6126599;23;20060;-79
2023/04/04 12:44:26;;;;;;;0.00;0.00;;;;;;;42.30;6.33;101389.16;6109886;23;20005;-79
2023/04/04 12:47:05;;;;;;;0.00;0.00;;;;;;;41.82;6.39;101404.31;6151176;23;20088;-80
2023/04/04 12:49:43;;;;;;;0.00;0.00;;;;;;;42.33;7.04;101403.38;6122142;23;20012;-80
2023/04/04 12:56:08;;;;;;;0.00;0.00;;;;;;;46.61;6.21;101377.00;6091699;23;20402;-80
2023/04/04 12:58:47;;;;;;;0.00;0.00;;;;;;;47.29;5.42;101366.59;6123260;23;20368;-79
2023/04/04 13:01:39;;;;;;;0.00;0.00;;;;;;;48.36;4.73;101393.34;6123794;23;20040;-80
2023/04/04 13:04:07;;;;;;;0.00;0.00;;;;;;;48.22;5.23;101373.94;6121189;23;20013;-81
2023/04/04 13:06:57;;;;;;;0.00;0.00;;;;;;;48.93;5.45;101383.16;6137824;23;20047;-81
2023/04/04 13:09:31;;;;;;;0.00;0.00;;;;;;;50.00;4.74;101361.16;6154144;23;20020;-80
2023/04/04 13:12:22;;;;;;;0.00;0.00;;;;;;;50.39;4.39;101381.63;6151890;23;20015;-81
2023/04/04 13:15:17;;;;;;;0.00;0.00;;;;;;;48.31;3.88;101344.81;6140634;23;20008;-81
2023/04/04 13:17:53;;;;;;;0.00;0.00;;;;;;;46.79;4.73;101357.84;6155035;23;20005;-81
2023/04/04 13:20:20;;;;;;;0.00;0.00;;;;;;;45.55;5.37;101322.25;6179282;23;20025;-82
2023/04/04 13:23:06;;;;;;;0.00;0.00;;;;;;;46.44;5.86;101326.69;6160033;23;20004;-82
2023/04/04 13:25:35;;;;;;;0.00;0.00;;;;;;;48.04;5.33;101326.56;6211514;23;20000;-79
2023/04/04 13:28:02;;;;;;;0.00;0.00;;;;;;;49.60;4.50;101334.81;6158319;23;20380;-81
2023/04/04 13:31:03;;;;;;;;;;;;;;;;;;;;;
2023/04/04 13:33:29;;;;;;;0.00;0.00;;;;;;;47.38;4.95;101325.97;6213260;23;20080;-80
2023/04/04 13:36:03;;;;;;;0.00;0.00;;;;;;;45.48;5.10;101328.41;6186800;23;20039;-81
2023/04/04 13:38:31;;;;;;;0.00;0.00;;;;;;;44.41;6.07;101309.16;6186565;23;20305;-81
2023/04/04 13:41:06;;;;;;;0.00;0.00;;;;;;;46.04;6.06;101310.69;6187563;23;20008;-81
2023/04/04 13:43:34;;;;;;;0.00;0.00;;;;;;;46.48;5.87;101295.50;6213360;23;20535;-80
2023/04/04 13:46:02;;;;;;;0.00;0.00;;;;;;;48.26;5.87;101302.06;6214076;23;20056;-80
2023/04/04 13:48:35;;;;;;;0.00;0.00;;;;;;;49.31;5.07;101296.09;6161685;23;20012;-81
2023/04/04 13:51:01;;;;;;;0.00;0.00;;;;;;;50.39;4.89;101300.19;6189470;23;20405;-80
2023/04/04 13:53:31;;;;;;;0.00;0.00;;;;;;;51.14;4.45;101302.59;6185093;23;20099;-80
2023/04/04 13:56:01;;;;;;;0.00;0.00;;;;;;;50.36;4.16;101298.34;6186065;23;20004;-81
2023/04/04 13:59:21;;;;;;;;;;;;;;;;;;;;;
2023/04/04 14:02:17;;;;;;;;;;;;;;;;;;;;;
2023/04/04 14:04:46;;;;;;;;;;;;;;;;;;;;;
2023/04/04 14:07:43;;;;;;;0.00;0.00;;;;;;;45.77;5.53;101274.94;6205117;22;20111;-82
2023/04/04 14:11:11;;;;;;;;;;;;;;;;;;;;;
2023/04/04 14:14:12;;;;;;;0.00;0.00;;;;;;;46.88;5.73;101279.66;6204227;23;20091;-80
2023/04/04 14:16:44;;;;;;;0.00;0.00;;;;;;;46.23;5.78;101271.66;6122795;23;20005;-81
2023/04/04 14:19:54;;;;;;;;;;;;;;;;;;;;;
2023/04/04 14:22:27;;;;;;;0.00;0.00;;;;;;;42.39;6.58;101228.31;6197251;23;20047;-82
2023/04/04 14:25:36;;;;;;;0.00;0.00;;;;;;;42.79;6.61;101255.53;6183230;23;20047;-80
2023/04/04 14:31:26;;;;;;;0.00;0.00;;;;;;;42.25;6.76;101241.16;6076292;23;20061;-77
2023/04/04 14:33:59;;;;;;;0.00;0.00;;;;;;;43.63;7.00;101239.34;6156815;23;20021;-79
2023/04/04 14:36:25;;;;;;;0.00;0.00;;;;;;;43.63;6.10;101248.00;6182499;23;20017;-79
2023/04/04 14:38:50;;;;;;;0.00;0.00;;;;;;;43.32;6.62;101240.25;6160665;23;20474;-79
2023/04/04 14:41:16;;;;;;;0.00;0.00;;;;;;;44.06;6.66;101240.34;6206743;23;20000;-81
2023/04/04 14:44:07;;;;;;;0.00;0.00;;;;;;;44.22;6.30;101240.00;6184877;23;20013;-79
2023/04/04 14:46:32;;;;;;;0.00;0.00;;;;;;;43.17;6.39;101248.69;6185011;23;20012;-79
2023/04/04 14:48:58;;;;;;;0.00;0.00;;;;;;;41.72;6.75;101233.19;6185444;23;20009;-79
2023/04/04 14:51:24;;;;;;;0.00;0.00;;;;;;;40.39;7.06;101237.44;6180456;23;20247;-79
2023/04/04 14:53:51;;;;;;;0.00;0.00;;;;;;;39.82;7.48;101234.13;6184222;23;20039;-80
2023/04/04 14:56:17;;;;;;;0.00;0.00;;;;;;;38.90;7.93;101233.94;6183439;23;20001;-79
2023/04/04 14:58:50;;;;;;;0.00;0.00;;;;;;;38.92;8.03;101225.72;6185433;23;20327;-79
2023/04/04 15:01:21;;;;;;;0.00;0.00;;;;;;;40.66;7.91;101232.13;6180728;23;20031;-79
2023/04/04 15:03:47;;;;;;;0.00;0.00;;;;;;;41.57;6.62;101229.22;6185057;23;20016;-79
2023/04/04 15:06:13;;;;;;;0.00;0.00;;;;;;;41.55;6.49;101226.81;6180006;23;20025;-79
2023/04/04 15:08:41;;;;;;;0.00;0.00;;;;;;;40.46;6.96;101212.25;6177025;23;20600;-79
2023/04/04 15:11:06;;;;;;;0.00;0.00;;;;;;;40.70;7.27;101203.38;6177568;23;20448;-79
2023/04/04 15:13:32;;;;;;;0.00;0.00;;;;;;;41.07;7.36;101226.78;6174458;23;20005;-79
2023/04/04 15:16:00;;;;;;;0.00;0.00;;;;;;;40.12;7.24;101219.38;6175951;23;20005;-78
2023/04/04 15:25:31;;;;;;;0.00;0.00;;;;;;;40.46;7.44;101220.06;6169131;23;20024;-77
2023/04/04 15:27:57;;;;;;;0.00;0.00;;;;;;;39.23;7.60;101211.91;6177864;23;20009;-77
2023/04/04 15:30:22;;;;;;;0.00;0.00;;;;;;;38.10;7.75;101214.81;6180399;23;20009;-77
2023/04/04 15:32:48;;;;;;;0.00;0.00;;;;;;;38.34;8.33;101197.59;6201515;23;20076;-77
2023/04/04 15:35:16;;;;;;;0.00;0.00;;;;;;;38.94;8.07;101206.84;6179154;23;20379;-77
2023/04/04 15:37:42;;;;;;;0.00;0.00;;;;;;;38.59;8.10;101214.19;6173019;23;20009;-76
2023/04/04 15:40:08;;;;;;;0.00;0.00;;;;;;;38.27;8.20;101204.28;6183156;23;20016;-76
2023/04/04 15:42:35;;;;;;;0.00;0.00;;;;;;;37.46;8.57;101202.53;6179914;23;20017;-77
2023/04/04 15:45:00;;;;;;;0.00;0.00;;;;;;;37.13;8.67;101190.81;6158227;23;20009;-78
2023/04/04 15:47:26;;;;;;;0.00;0.00;;;;;;;36.40;8.80;101195.94;6178959;23;20076;-76
2023/04/04 15:49:56;;;;;;;0.00;0.00;;;;;;;36.26;9.48;101183.50;6153610;23;20048;-76
2023/04/04 15:52:22;;;;;;;0.00;0.00;;;;;;;35.89;9.32;101185.13;6203407;23;20008;-78
2023/04/04 15:54:48;;;;;;;0.00;0.00;;;;;;;35.78;9.70;101190.13;6173791;23;20013;-78
2023/04/04 15:57:13;;;;;;;0.00;0.00;;;;;;;35.73;9.57;101196.25;6203098;23;20056;-77
2023/04/04 15:59:39;;;;;;;0.00;0.00;;;;;;;35.64;10.05;101189.00;6177472;23;20420;-77
2023/04/04 16:02:05;;;;;;;0.00;0.00;;;;;;;35.65;10.09;101176.41;6181169;23;20013;-75
2023/04/04 16:04:31;;;;;;;0.00;0.00;;;;;;;35.95;10.42;101169.22;6181404;23;20048;-81
2023/04/04 16:10:28;;;;;;;0.00;0.00;;;;;;;33.61;11.79;101179.13;6147431;23;20040;-80
2023/04/04 16:12:58;;;;;;;0.00;0.00;;;;;;;33.82;11.80;101161.31;6151552;23;20009;-80
2023/04/04 16:15:33;;;;;;;0.00;0.00;;;;;;;33.65;12.25;101162.13;6117257;23;20013;-80
2023/04/04 16:17:59;;;;;;;0.00;0.00;;;;;;;34.38;12.20;101164.34;6126339;23;19997;-78
2023/04/04 16:20:30;;;;;;;0.00;0.00;;;;;;;34.29;11.97;101177.34;6118577;23;20305;-77
2023/04/04 16:22:55;;;;;;;0.00;0.00;;;;;;;33.06;13.04;101160.50;6124160;23;20039;-78
2023/04/04 16:25:24;;;;;;;0.00;0.00;;;;;;;31.76;13.93;101162.84;6114062;23;20060;-78
2023/04/04 16:27:51;;;;;;;0.00;0.00;;;;;;;30.27;15.56;101168.25;6147011;23;20756;-77
2023/04/04 16:30:17;;;;;;;0.00;0.00;;;;;;;29.57;16.98;101155.53;6125023;23;20032;-76
2023/04/04 16:32:45;;;;;;;0.00;0.00;;;;;;;28.82;17.35;101174.78;6143612;23;20100;-77
2023/04/04 16:35:11;;;;;;;0.00;0.00;;;;;;;28.41;18.68;101160.28;6120199;23;20087;-77
2023/04/04 16:37:36;;;;;;;0.00;0.00;;;;;;;27.76;19.88;101164.47;6114582;23;20013;-78
2023/04/04 16:40:05;;;;;;;0.00;0.00;;;;;;;27.37;19.67;101131.47;6142508;23;20054;-80
2023/04/04 16:42:36;;;;;;;0.00;0.00;;;;;;;27.32;20.57;101165.41;6114820;23;20037;-78
2023/04/04 16:45:11;;;;;;;;;;;;;;;;;;;;;
2023/04/04 16:47:37;;;;;;;0.00;0.00;;;;;;;25.73;21.91;101134.88;6143006;23;20088;-79
2023/04/04 16:50:06;;;;;;;0.00;0.00;;;;;;;25.58;22.70;101134.44;6146446;23;20033;-79
2023/04/04 16:59:40;;;;;;;0.00;0.00;;;;;;;23.38;25.23;101172.25;6058483;23;20123;-77
2023/04/04 17:02:12;;;;;;;0.00;0.00;;;;;;;23.21;26.04;101159.22;6033826;23;20054;-79
2023/04/04 17:04:40;;;;;;;0.00;0.00;;;;;;;23.40;25.92;101156.81;6094137;23;20624;-80
2023/04/04 17:07:05;;;;;;;0.00;0.00;;;;;;;22.93;25.73;101140.09;6161124;23;20083;-77
2023/04/04 17:09:42;;;;;;;;;;;;;;;;;;;;;
2023/04/04 17:12:15;;;;;;;0.00;0.00;;;;;;;20.78;28.18;101134.31;6175085;23;20088;-79
2023/04/04 17:14:40;;;;;;;0.00;0.00;;;;;;;20.38;29.03;101133.06;6154204;23;20449;-79
2023/04/04 17:17:31;;;;;;;;;;;;;;;;;;;;;
2023/04/04 17:20:05;;;;;;;0.00;0.00;;;;;;;21.05;28.78;101150.00;6172998;23;20124;-78
2023/04/04 17:29:25;;;;;;;0.00;0.00;;;;;;;20.20;30.12;101168.19;6174006;23;20463;-77
2023/04/04 17:32:08;;;;;;;0.00;0.00;;;;;;;19.51;31.33;101157.19;6148770;23;20005;-78
2023/04/04 17:34:40;;;;;;;0.00;0.00;;;;;;;18.69;31.72;101144.81;6166055;23;20321;-79
2023/04/04 17:37:10;;;;;;;0.00;0.00;;;;;;;17.91;32.83;101164.56;6152859;23;20013;-79
2023/04/04 17:40:00;;;;;;;0.00;0.00;;;;;;;16.88;35.15;101177.59;6178340;23;20012;-78
2023/04/04 17:42:28;;;;;;;0.00;0.00;;;;;;;15.98;36.27;101159.47;6104959;23;20339;-73
2023/04/04 17:44:53;;;;;;;0.00;0.00;;;;;;;16.13;35.43;101162.09;6176693;23;20628;-77
2023/04/04 17:47:52;;;;;;;0.00;0.00;;;;;;;16.41;35.38;101156.94;6154649;23;20028;-76
2023/04/04 17:50:17;;;;;;;0.00;0.00;;;;;;;16.46;35.15;101137.59;6129507;23;20016;-75
2023/04/04 17:55:41;;;;;;;0.00;0.00;;;;;;;16.03;36.93;101148.38;6165931;23;20016;-75
2023/04/04 17:58:19;;;;;;;0.00;0.00;;;;;;;15.63;37.61;101158.50;6149522;23;20646;-77
2023/04/04 18:01:00;;;;;;;0.00;0.00;;;;;;;15.21;37.80;101159.72;6154286;23;20094;-77
2023/04/04 18:03:44;;;;;;;0.00;0.00;;;;;;;14.48;39.17;101139.66;6125948;23;20012;-76
2023/04/04 18:06:09;;;;;;;0.00;0.00;;;;;;;14.10;39.70;101150.91;6179032;23;20016;-76
2023/04/04 18:09:02;;;;;;;;;;;;;;;;;;;;;
2023/04/04 18:11:34;;;;;;;0.00;0.00;;;;;;;13.30;41.44;101175.84;6175092;23;20081;-76
2023/04/04 18:14:04;;;;;;;0.00;0.00;;;;;;;12.95;42.63;101185.50;6179154;23;20008;-75
2023/04/04 18:16:31;;;;;;;0.00;0.00;;;;;;;12.68;42.82;101191.91;6127362;23;20859;-76
2023/04/04 18:19:16;;;;;;;0.00;0.00;;;;;;;12.12;43.23;101169.41;6179103;23;20012;-75
2023/04/04 18:21:42;;;;;;;0.00;0.00;;;;;;;11.92;44.55;101200.97;6147740;23;20004;-74